createdAt,value
2023-04-29T00:00:51.994Z,2.91
2023-04-29T00:01:52.102Z,2.68
2023-04-29T00:02:52.200Z,2.50
2023-04-29T00:03:52.238Z,2.57
2023-04-29T00:04:52.409Z,2.88
2023-04-29T00:05:52.374Z,2.92
2023-04-29T00:06:52.291Z,2.91
2023-04-29T00:07:52.329Z,3.06
2023-04-29T00:08:52.371Z,2.64
2023-04-29T00:09:52.579Z,2.62
2023-04-29T00:10:52.469Z,2.83
2023-04-29T00:11:52.514Z,2.96
2023-04-29T00:12:52.565Z,2.86
2023-04-29T00:13:52.654Z,2.57
2023-04-29T00:14:52.667Z,2.99
2023-04-29T00:15:52.715Z,2.65
2023-04-29T00:16:52.914Z,2.79
2023-04-29T00:17:52.849Z,2.89
2023-04-29T00:18:52.883Z,3.02
2023-04-29T00:19:53.236Z,2.67
2023-04-29T00:20:52.968Z,2.99
2023-04-29T00:21:53.111Z,2.43
2023-04-29T00:22:53.069Z,2.92
2023-04-29T00:23:53.140Z,2.50
2023-04-29T00:24:53.235Z,3.01
2023-04-29T00:25:53.267Z,3.15
2023-04-29T00:26:53.360Z,3.16
2023-04-29T00:27:53.373Z,2.84
2023-04-29T00:28:53.422Z,2.85
2023-04-29T00:29:53.760Z,2.62
2023-04-29T00:30:53.565Z,2.34
2023-04-29T00:31:53.586Z,2.29
2023-04-29T00:32:53.624Z,2.51
2023-04-29T00:33:53.672Z,2.56
2023-04-29T00:34:53.715Z,2.59
2023-04-29T00:35:53.798Z,2.98
2023-04-29T00:36:53.793Z,2.80
2023-04-29T00:37:53.844Z,2.89
2023-04-29T00:38:53.842Z,2.67
2023-04-29T00:39:53.986Z,2.01
2023-04-29T00:40:53.888Z,2.77
2023-04-29T00:41:53.919Z,2.80
2023-04-29T00:42:53.974Z,2.50
2023-04-29T00:43:53.998Z,2.68
2023-04-29T00:44:54.029Z,2.40
2023-04-29T00:45:54.076Z,2.66
2023-04-29T00:46:54.111Z,2.82
2023-04-29T00:47:54.182Z,2.61
2023-04-29T00:48:54.178Z,2.35
2023-04-29T00:49:54.302Z,2.22
2023-04-29T00:50:54.243Z,2.47
2023-04-29T00:51:54.282Z,2.69
2023-04-29T00:52:54.308Z,2.59
2023-04-29T00:53:54.349Z,2.55
2023-04-29T00:54:54.401Z,2.68
2023-04-29T00:55:55.410Z,2.30
2023-04-29T00:56:54.505Z,2.60
2023-04-29T00:57:54.536Z,2.84
2023-04-29T00:58:54.573Z,2.38
2023-04-29T00:59:54.846Z,2.64
2023-04-29T01:00:56.372Z,2.23
2023-04-29T01:01:54.707Z,2.14
2023-04-29T01:02:54.801Z,2.58
2023-04-29T01:03:54.877Z,2.37
2023-04-29T01:04:54.734Z,3.01
2023-04-29T01:05:54.717Z,2.71
2023-04-29T01:06:54.724Z,2.33
2023-04-29T01:07:54.757Z,2.42
2023-04-29T01:08:54.775Z,2.63
2023-04-29T01:09:54.974Z,3.01
2023-04-29T01:10:54.822Z,2.72
2023-04-29T01:11:55.825Z,2.91
2023-04-29T01:12:54.874Z,2.68
2023-04-29T01:13:54.855Z,2.52
2023-04-29T01:14:54.868Z,2.62
2023-04-29T01:15:54.896Z,2.13
2023-04-29T01:16:54.862Z,2.69
2023-04-29T01:17:54.906Z,2.85
2023-04-29T01:18:54.870Z,2.56
2023-04-29T01:19:54.940Z,2.23
2023-04-29T01:20:54.878Z,2.43
2023-04-29T01:21:54.896Z,2.95
2023-04-29T01:22:54.918Z,2.40
2023-04-29T01:23:54.912Z,2.56
2023-04-29T01:24:54.956Z,2.61
2023-04-29T01:25:54.948Z,2.45
2023-04-29T01:26:54.991Z,2.07
2023-04-29T01:27:55.039Z,2.66
2023-04-29T01:28:55.074Z,2.42
2023-04-29T01:29:55.109Z,2.49
2023-04-29T01:30:55.117Z,2.90
2023-04-29T01:31:55.333Z,2.90
2023-04-29T01:32:55.295Z,2.52
2023-04-29T01:33:55.191Z,2.38
2023-04-29T01:34:55.227Z,2.54
2023-04-29T01:35:55.231Z,2.07
2023-04-29T01:36:55.342Z,3.03
2023-04-29T01:37:55.307Z,2.68
2023-04-29T01:38:55.328Z,2.26
2023-04-29T01:39:55.362Z,2.55
2023-04-29T01:40:55.388Z,2.47
2023-04-29T01:41:55.445Z,2.86
2023-04-29T01:42:55.457Z,2.50
2023-04-29T01:43:55.476Z,2.65
2023-04-29T01:44:55.483Z,2.17
2023-04-29T01:45:55.486Z,2.50
2023-04-29T01:46:55.547Z,2.48
2023-04-29T01:47:55.553Z,2.70
2023-04-29T01:48:55.580Z,2.59
2023-04-29T01:49:55.585Z,3.02
2023-04-29T01:50:55.623Z,2.26
2023-04-29T01:51:55.695Z,2.01
2023-04-29T01:52:55.712Z,2.49
2023-04-29T01:53:55.760Z,2.13
2023-04-29T01:54:55.804Z,2.31
2023-04-29T01:55:55.828Z,2.69
2023-04-29T01:56:55.859Z,2.45
2023-04-29T01:57:55.880Z,2.53
2023-04-29T01:58:55.918Z,2.63
2023-04-29T01:59:55.943Z,2.38
2023-04-29T02:00:55.998Z,2.28
2023-04-29T02:01:55.984Z,2.32
2023-04-29T02:02:56.128Z,2.91
2023-04-29T02:03:56.210Z,2.18
2023-04-29T02:04:56.138Z,2.36
2023-04-29T02:05:56.136Z,2.28
2023-04-29T02:06:56.154Z,2.28
2023-04-29T02:07:56.179Z,2.52
2023-04-29T02:08:56.209Z,2.24
2023-04-29T02:09:56.879Z,2.71
2023-04-29T02:10:56.285Z,2.14
2023-04-29T02:11:56.277Z,2.57
2023-04-29T02:12:56.283Z,2.93
2023-04-29T02:13:56.310Z,2.69
2023-04-29T02:14:56.313Z,2.41
2023-04-29T02:15:56.371Z,2.41
2023-04-29T02:16:56.360Z,2.55
2023-04-29T02:17:56.385Z,2.54
2023-04-29T02:18:56.385Z,2.55
2023-04-29T02:19:56.392Z,2.23
2023-04-29T02:20:56.414Z,2.46
2023-04-29T02:21:56.484Z,2.34
2023-04-29T02:22:56.472Z,2.24
2023-04-29T02:23:56.539Z,2.66
2023-04-29T02:24:56.535Z,2.54
2023-04-29T02:25:56.565Z,2.72
2023-04-29T02:26:56.595Z,2.34
2023-04-29T02:27:56.622Z,2.26
2023-04-29T02:28:57.659Z,1.97
2023-04-29T02:29:56.736Z,2.60
2023-04-29T02:30:56.741Z,2.62
2023-04-29T02:31:56.737Z,2.40
2023-04-29T02:32:56.727Z,2.45
2023-04-29T02:33:56.733Z,2.44
2023-04-29T02:34:56.740Z,2.52
2023-04-29T02:35:56.744Z,2.70
2023-04-29T02:36:56.793Z,2.53
2023-04-29T02:37:56.762Z,2.11
2023-04-29T02:38:56.842Z,2.45
2023-04-29T02:39:56.795Z,2.37
2023-04-29T02:40:56.820Z,2.55
2023-04-29T02:41:56.837Z,2.27
2023-04-29T02:42:56.851Z,2.27
2023-04-29T02:43:56.996Z,2.54
2023-04-29T02:44:56.893Z,2.18
2023-04-29T02:45:56.898Z,2.88
2023-04-29T02:46:56.911Z,2.32
2023-04-29T02:47:56.980Z,2.19
2023-04-29T02:48:57.007Z,2.27
2023-04-29T02:49:57.013Z,2.30
2023-04-29T02:50:56.958Z,1.66
2023-04-29T02:51:56.974Z,2.19
2023-04-29T02:52:56.995Z,2.12
2023-04-29T02:53:57.880Z,2.59
2023-04-29T02:54:57.025Z,2.20
2023-04-29T02:55:57.042Z,2.51
2023-04-29T02:56:57.047Z,2.11
2023-04-29T02:57:57.053Z,2.42
2023-04-29T02:58:57.052Z,2.37
2023-04-29T02:59:57.049Z,2.32
2023-04-29T03:00:57.083Z,2.26
2023-04-29T03:01:57.053Z,2.60
2023-04-29T03:02:57.218Z,2.60
2023-04-29T03:03:58.098Z,2.31
2023-04-29T03:04:57.167Z,2.45
2023-04-29T03:05:57.193Z,2.57
2023-04-29T03:06:57.140Z,2.35
2023-04-29T03:07:57.131Z,2.26
2023-04-29T03:08:57.128Z,2.21
2023-04-29T03:09:57.140Z,2.58
2023-04-29T03:10:57.132Z,2.37
2023-04-29T03:11:57.128Z,2.17
2023-04-29T03:12:57.132Z,2.45
2023-04-29T03:13:57.135Z,2.73
2023-04-29T03:14:57.138Z,2.10
2023-04-29T03:15:57.145Z,2.36
2023-04-29T03:16:57.230Z,2.29
2023-04-29T03:17:57.163Z,2.45
2023-04-29T03:18:57.131Z,2.06
2023-04-29T03:19:57.140Z,2.43
2023-04-29T03:20:57.142Z,2.13
2023-04-29T03:21:57.198Z,2.08
2023-04-29T03:22:57.142Z,2.48
2023-04-29T03:23:57.130Z,2.22
2023-04-29T03:24:57.147Z,2.00
2023-04-29T03:25:57.164Z,2.30
2023-04-29T03:26:57.163Z,1.84
2023-04-29T03:27:57.896Z,2.00
2023-04-29T03:28:57.157Z,2.63
2023-04-29T03:29:57.157Z,1.92
2023-04-29T03:30:57.181Z,2.51
2023-04-29T03:31:57.157Z,2.46
2023-04-29T03:32:57.157Z,2.10
2023-04-29T03:33:57.174Z,2.31
2023-04-29T03:34:57.157Z,1.98
2023-04-29T03:35:57.156Z,2.33
2023-04-29T03:36:57.155Z,2.02
2023-04-29T03:37:57.158Z,2.18
2023-04-29T03:38:57.235Z,1.93
2023-04-29T03:39:57.189Z,2.54
2023-04-29T03:40:57.193Z,2.28
2023-04-29T03:41:57.196Z,2.23
2023-04-29T03:42:57.182Z,2.13
2023-04-29T03:43:57.187Z,2.35
2023-04-29T03:44:57.199Z,2.58
2023-04-29T03:45:57.218Z,2.16
2023-04-29T03:46:57.178Z,2.55
2023-04-29T03:47:57.253Z,2.20
2023-04-29T03:48:57.167Z,2.49
2023-04-29T03:49:57.175Z,2.19
2023-04-29T03:50:57.160Z,2.47
2023-04-29T03:51:57.166Z,2.38
2023-04-29T03:52:57.170Z,2.40
2023-04-29T03:53:57.182Z,2.16
2023-04-29T03:54:57.191Z,2.19
2023-04-29T03:55:57.172Z,1.93
2023-04-29T03:56:57.179Z,2.07
2023-04-29T03:57:57.161Z,2.76
2023-04-29T03:58:57.174Z,2.49
2023-04-29T03:59:57.177Z,2.31
2023-04-29T04:00:57.177Z,2.14
2023-04-29T04:01:57.219Z,2.63
2023-04-29T04:02:57.258Z,2.28
2023-04-29T04:03:57.412Z,2.58
2023-04-29T04:04:57.207Z,2.44
2023-04-29T04:05:57.186Z,2.08
2023-04-29T04:06:57.163Z,2.09
2023-04-29T04:07:57.165Z,1.93
2023-04-29T04:08:57.145Z,2.42
2023-04-29T04:09:57.155Z,2.12
2023-04-29T04:10:57.153Z,2.02
2023-04-29T04:11:57.158Z,2.11
2023-04-29T04:12:57.156Z,2.34
2023-04-29T04:13:57.899Z,2.39
2023-04-29T04:14:57.155Z,2.39
2023-04-29T04:15:57.166Z,2.03
2023-04-29T04:16:57.165Z,2.36
2023-04-29T04:17:57.226Z,1.95
2023-04-29T04:18:57.152Z,2.18
2023-04-29T04:19:57.155Z,2.26
2023-04-29T04:20:57.183Z,2.20
2023-04-29T04:21:57.188Z,1.86
2023-04-29T04:22:57.168Z,2.02
2023-04-29T04:23:57.245Z,2.32
2023-04-29T04:24:57.182Z,2.49
2023-04-29T04:25:57.185Z,2.11
2023-04-29T04:26:57.191Z,2.05
2023-04-29T04:27:57.195Z,1.98
2023-04-29T04:28:57.184Z,1.82
2023-04-29T04:29:57.183Z,2.37
2023-04-29T04:30:57.978Z,2.16
2023-04-29T04:31:57.243Z,2.21
2023-04-29T04:32:57.196Z,1.90
2023-04-29T04:33:57.172Z,1.90
2023-04-29T04:34:57.169Z,2.19
2023-04-29T04:35:57.230Z,2.18
2023-04-29T04:36:57.178Z,2.14
2023-04-29T04:37:57.165Z,2.35
2023-04-29T04:38:57.164Z,2.57
2023-04-29T04:39:57.176Z,2.26
2023-04-29T04:40:57.197Z,2.23
2023-04-29T04:41:57.191Z,2.25
2023-04-29T04:42:57.187Z,2.03
2023-04-29T04:43:57.255Z,1.95
2023-04-29T04:44:57.190Z,2.30
2023-04-29T04:45:57.379Z,2.09
2023-04-29T04:46:57.200Z,1.98
2023-04-29T04:47:57.245Z,2.06
2023-04-29T04:48:57.323Z,1.99
2023-04-29T04:49:57.208Z,2.14
2023-04-29T04:50:57.212Z,2.20
2023-04-29T04:51:57.193Z,2.42
2023-04-29T04:52:57.203Z,1.73
2023-04-29T04:53:57.203Z,2.46
2023-04-29T04:54:57.270Z,2.28
2023-04-29T04:55:57.213Z,2.28
2023-04-29T04:56:57.214Z,2.06
2023-04-29T04:57:57.206Z,2.42
2023-04-29T04:58:57.206Z,1.77
2023-04-29T04:59:57.929Z,2.07
2023-04-29T05:00:57.265Z,2.38
2023-04-29T05:01:57.246Z,2.10
2023-04-29T05:02:58.041Z,2.22
2023-04-29T05:03:57.288Z,2.22
2023-04-29T05:04:57.200Z,1.90
2023-04-29T05:05:57.218Z,2.04
2023-04-29T05:06:57.209Z,2.19
2023-04-29T05:07:57.199Z,2.28
2023-04-29T05:08:57.216Z,2.64
2023-04-29T05:09:57.205Z,2.36
2023-04-29T05:10:57.237Z,2.15
2023-04-29T05:11:57.210Z,2.06
2023-04-29T05:12:57.206Z,2.39
2023-04-29T05:13:57.199Z,1.98
2023-04-29T05:14:57.205Z,2.41
2023-04-29T05:15:57.207Z,2.11
2023-04-29T05:16:57.333Z,1.83
2023-04-29T05:17:57.235Z,2.52
2023-04-29T05:18:57.192Z,2.03
2023-04-29T05:19:57.212Z,1.79
2023-04-29T05:20:57.188Z,2.23
2023-04-29T05:21:57.184Z,2.40
2023-04-29T05:22:57.181Z,1.95
2023-04-29T05:23:57.261Z,1.96
2023-04-29T05:24:57.198Z,2.24
2023-04-29T05:25:57.247Z,2.19
2023-04-29T05:26:57.202Z,1.83
2023-04-29T05:27:57.193Z,1.96
2023-04-29T05:28:57.195Z,1.62
2023-04-29T05:29:57.231Z,2.02
2023-04-29T05:30:57.235Z,2.03
2023-04-29T05:31:57.941Z,2.26
2023-04-29T05:32:57.244Z,1.90
2023-04-29T05:33:57.239Z,1.95
2023-04-29T05:34:57.206Z,2.13
2023-04-29T05:35:57.219Z,2.03
2023-04-29T05:36:57.276Z,2.03
2023-04-29T05:37:57.251Z,2.08
2023-04-29T05:38:57.255Z,2.62
2023-04-29T05:39:57.279Z,2.19
2023-04-29T05:40:57.302Z,2.13
2023-04-29T05:41:57.324Z,2.27
2023-04-29T05:42:57.309Z,1.84
2023-04-29T05:43:57.315Z,2.25
2023-04-29T05:44:57.345Z,3.11
2023-04-29T05:45:57.451Z,2.20
2023-04-29T05:46:57.399Z,2.27
2023-04-29T05:47:57.444Z,2.22
2023-04-29T05:48:57.402Z,2.03
2023-04-29T05:49:57.400Z,2.09
2023-04-29T05:50:57.410Z,2.09
2023-04-29T05:51:57.437Z,2.11
2023-04-29T05:52:57.437Z,2.54
2023-04-29T05:53:57.442Z,1.96
2023-04-29T05:54:57.556Z,2.27
2023-04-29T05:55:57.459Z,2.00
2023-04-29T05:56:57.448Z,2.38
2023-04-29T05:57:57.451Z,2.12
2023-04-29T05:58:57.470Z,2.14
2023-04-29T05:59:57.494Z,2.16
2023-04-29T06:00:59.828Z,2.23
2023-04-29T06:01:57.662Z,1.81
2023-04-29T06:02:59.135Z,2.20
2023-04-29T06:03:57.880Z,1.91
2023-04-29T06:04:58.023Z,2.55
2023-04-29T06:05:58.070Z,2.00
2023-04-29T06:06:57.877Z,1.95
2023-04-29T06:07:57.940Z,2.23
2023-04-29T06:08:58.001Z,2.17
2023-04-29T06:09:58.050Z,1.87
2023-04-29T06:10:58.108Z,1.81
2023-04-29T06:11:58.178Z,2.12
2023-04-29T06:12:58.237Z,2.04
2023-04-29T06:13:58.287Z,2.24
2023-04-29T06:14:58.358Z,2.15
2023-04-29T06:15:58.432Z,2.04
2023-04-29T06:16:58.459Z,1.88
2023-04-29T06:17:58.631Z,1.92
2023-04-29T06:18:58.629Z,1.93
2023-04-29T06:19:58.614Z,2.09
2023-04-29T06:20:58.673Z,1.80
2023-04-29T06:21:58.795Z,1.77
2023-04-29T06:22:58.776Z,2.05
2023-04-29T06:23:58.872Z,2.08
2023-04-29T06:24:58.857Z,2.00
2023-04-29T06:25:58.895Z,2.19
2023-04-29T06:26:58.947Z,1.94
2023-04-29T06:27:58.976Z,1.97
2023-04-29T06:28:58.994Z,1.65
2023-04-29T06:29:59.054Z,2.06
2023-04-29T06:30:59.071Z,2.17
2023-04-29T06:31:59.127Z,1.75
2023-04-29T06:32:59.144Z,2.09
2023-04-29T06:33:59.129Z,2.27
2023-04-29T06:34:59.143Z,2.11
2023-04-29T06:35:59.168Z,2.05
2023-04-29T06:36:59.276Z,2.23
2023-04-29T06:37:59.241Z,2.13
2023-04-29T06:38:59.241Z,2.23
2023-04-29T06:39:59.246Z,2.21
2023-04-29T06:40:59.252Z,1.87
2023-04-29T06:41:59.252Z,2.48
2023-04-29T06:42:59.258Z,1.75
2023-04-29T06:43:59.300Z,2.03
2023-04-29T06:44:59.323Z,2.25
2023-04-29T06:45:59.379Z,1.71
2023-04-29T06:46:59.462Z,1.75
2023-04-29T06:47:59.467Z,2.12
2023-04-29T06:48:59.512Z,1.84
2023-04-29T06:49:59.557Z,2.18
2023-04-29T06:50:59.989Z,1.65
2023-04-29T06:51:59.701Z,1.63
2023-04-29T06:52:59.744Z,1.62
2023-04-29T06:53:59.826Z,2.41
2023-04-29T06:54:59.826Z,1.94
2023-04-29T06:55:59.871Z,2.05
2023-04-29T06:56:59.904Z,1.80
2023-04-29T06:57:59.939Z,1.65
2023-04-29T06:58:59.985Z,1.92
2023-04-29T07:00:00.023Z,1.87
2023-04-29T07:01:00.090Z,2.35
2023-04-29T07:02:00.092Z,1.69
2023-04-29T07:03:00.170Z,1.95
2023-04-29T07:04:00.501Z,2.17
2023-04-29T07:05:00.162Z,2.35
2023-04-29T07:06:00.178Z,1.97
2023-04-29T07:07:00.202Z,2.00
2023-04-29T07:08:00.234Z,1.78
2023-04-29T07:09:00.248Z,2.10
2023-04-29T07:10:00.262Z,1.80
2023-04-29T07:11:00.343Z,1.73
2023-04-29T07:12:00.310Z,1.99
2023-04-29T07:13:00.310Z,1.55
2023-04-29T07:14:00.318Z,2.14
2023-04-29T07:15:00.308Z,1.80
2023-04-29T07:16:00.341Z,1.80
2023-04-29T07:17:00.447Z,1.84
2023-04-29T07:18:00.331Z,1.71
2023-04-29T07:19:00.302Z,1.64
2023-04-29T07:20:00.314Z,2.12
2023-04-29T07:21:00.328Z,1.33
2023-04-29T07:22:00.343Z,1.95
2023-04-29T07:23:00.451Z,1.67
2023-04-29T07:24:00.433Z,1.84
2023-04-29T07:25:00.487Z,1.85
2023-04-29T07:26:00.529Z,2.03
2023-04-29T07:27:00.589Z,1.79
2023-04-29T07:28:00.666Z,1.61
2023-04-29T07:29:00.713Z,1.85
2023-04-29T07:30:00.788Z,1.71
2023-04-29T07:31:00.842Z,1.93
2023-04-29T07:32:00.850Z,1.76
2023-04-29T07:33:01.000Z,1.79
2023-04-29T07:34:00.941Z,1.65
2023-04-29T07:35:00.972Z,1.91
2023-04-29T07:36:01.027Z,1.86
2023-04-29T07:37:01.038Z,1.99
2023-04-29T07:38:01.079Z,2.08
2023-04-29T07:39:01.109Z,1.79
2023-04-29T07:40:01.111Z,1.74
2023-04-29T07:41:01.198Z,1.54
2023-04-29T07:42:01.149Z,1.79
2023-04-29T07:43:01.177Z,1.97
2023-04-29T07:44:01.184Z,1.82
2023-04-29T07:45:01.192Z,1.70
2023-04-29T07:46:01.251Z,2.44
2023-04-29T07:47:01.204Z,2.03
2023-04-29T07:48:01.233Z,1.78
2023-04-29T07:49:01.229Z,1.54
2023-04-29T07:50:01.214Z,1.88
2023-04-29T07:51:01.240Z,1.64
2023-04-29T07:52:01.230Z,1.99
2023-04-29T07:53:01.242Z,2.11
2023-04-29T07:54:01.258Z,2.09
2023-04-29T07:55:01.254Z,1.57
2023-04-29T07:56:01.267Z,1.87
2023-04-29T07:57:01.271Z,1.49
2023-04-29T07:58:01.281Z,1.61
2023-04-29T07:59:01.286Z,1.87
2023-04-29T08:00:01.290Z,1.64
2023-04-29T08:01:01.288Z,1.93
2023-04-29T08:02:01.273Z,1.64
2023-04-29T08:03:01.455Z,1.82
2023-04-29T08:04:01.462Z,1.64
2023-04-29T08:05:01.953Z,2.01
2023-04-29T08:06:01.342Z,1.65
2023-04-29T08:07:01.295Z,1.88
2023-04-29T08:08:01.324Z,1.99
2023-04-29T08:09:02.143Z,1.66
2023-04-29T08:10:01.384Z,1.64
2023-04-29T08:11:01.402Z,1.74
2023-04-29T08:12:01.437Z,1.61
2023-04-29T08:13:01.497Z,1.86
2023-04-29T08:14:01.537Z,1.80
2023-04-29T08:15:01.602Z,1.58
2023-04-29T08:16:01.689Z,1.60
2023-04-29T08:17:01.711Z,1.67
2023-04-29T08:18:01.932Z,1.60
2023-04-29T08:19:01.834Z,1.76
2023-04-29T08:20:01.903Z,1.73
2023-04-29T08:21:01.951Z,1.64
2023-04-29T08:22:02.007Z,2.19
2023-04-29T08:23:02.076Z,1.85
2023-04-29T08:24:02.102Z,1.80
2023-04-29T08:25:02.167Z,1.73
2023-04-29T08:26:02.209Z,1.91
2023-04-29T08:27:02.238Z,1.95
2023-04-29T08:28:02.996Z,1.75
2023-04-29T08:29:02.320Z,1.60
2023-04-29T08:30:02.368Z,1.87
2023-04-29T08:31:02.410Z,1.35
2023-04-29T08:32:02.538Z,1.82
2023-04-29T08:33:02.553Z,1.71
2023-04-29T08:34:02.501Z,1.85
2023-04-29T08:35:02.545Z,1.42
2023-04-29T08:36:02.602Z,1.67
2023-04-29T08:37:02.623Z,1.55
2023-04-29T08:38:02.670Z,1.99
2023-04-29T08:39:02.689Z,2.34
2023-04-29T08:40:02.737Z,1.63
2023-04-29T08:41:02.766Z,1.74
2023-04-29T08:42:02.794Z,1.91
2023-04-29T08:43:02.837Z,1.62
2023-04-29T08:44:02.867Z,2.06
2023-04-29T08:45:02.920Z,1.69
2023-04-29T08:46:02.972Z,2.21
2023-04-29T08:47:02.983Z,2.09
2023-04-29T08:48:03.095Z,1.94
2023-04-29T08:49:03.032Z,1.78
2023-04-29T08:50:03.080Z,1.70
2023-04-29T08:51:03.306Z,2.14
2023-04-29T08:52:03.123Z,1.73
2023-04-29T08:53:03.162Z,1.73
2023-04-29T08:54:03.185Z,1.61
2023-04-29T08:55:04.010Z,1.80
2023-04-29T08:56:03.270Z,1.71
2023-04-29T08:57:03.261Z,1.73
2023-04-29T08:58:03.281Z,1.61
2023-04-29T08:59:03.297Z,1.87
2023-04-29T09:00:03.311Z,1.69
2023-04-29T09:01:03.407Z,1.82
2023-04-29T09:02:03.346Z,1.80
2023-04-29T09:03:03.440Z,1.61
2023-04-29T09:04:03.459Z,1.48
2023-04-29T09:05:03.498Z,1.66
2023-04-29T09:06:03.448Z,1.89
2023-04-29T09:07:03.436Z,1.85
2023-04-29T09:08:03.519Z,1.58
2023-04-29T09:09:03.520Z,1.88
2023-04-29T09:10:03.630Z,1.54
2023-04-29T09:11:03.637Z,1.74
2023-04-29T09:12:03.628Z,1.90
2023-04-29T09:13:03.638Z,1.42
2023-04-29T09:14:03.645Z,1.55
2023-04-29T09:15:03.655Z,1.85
2023-04-29T09:16:04.071Z,1.59
2023-04-29T09:17:03.864Z,1.62
2023-04-29T09:18:04.049Z,1.63
2023-04-29T09:19:03.990Z,1.80
2023-04-29T09:20:03.990Z,1.41
2023-04-29T09:21:03.997Z,1.78
2023-04-29T09:22:04.008Z,1.61
2023-04-29T09:23:04.024Z,1.69
2023-04-29T09:24:04.025Z,1.66
2023-04-29T09:25:04.031Z,1.69
2023-04-29T09:26:04.047Z,1.50
2023-04-29T09:27:04.063Z,1.78
2023-04-29T09:28:04.097Z,1.72
2023-04-29T09:29:04.120Z,1.53
2023-04-29T09:30:04.155Z,1.34
2023-04-29T09:31:04.210Z,1.72
2023-04-29T09:32:04.317Z,1.52
2023-04-29T09:33:04.308Z,1.88
2023-04-29T09:34:04.303Z,1.72
2023-04-29T09:35:04.322Z,1.16
2023-04-29T09:36:04.356Z,1.42
2023-04-29T09:37:04.397Z,1.63
2023-04-29T09:38:04.439Z,1.42
2023-04-29T09:39:04.476Z,1.75
2023-04-29T09:40:04.525Z,1.54
2023-04-29T09:41:05.040Z,1.86
2023-04-29T09:42:04.644Z,1.73
2023-04-29T09:43:04.692Z,1.69
2023-04-29T09:44:04.809Z,1.50
2023-04-29T09:45:04.788Z,1.42
2023-04-29T09:46:04.939Z,1.73
2023-04-29T09:47:04.891Z,1.65
2023-04-29T09:48:04.960Z,1.40
2023-04-29T09:49:04.973Z,2.22
2023-04-29T09:50:05.035Z,1.63
2023-04-29T09:51:05.084Z,1.60
2023-04-29T09:52:05.137Z,1.57
2023-04-29T09:53:05.215Z,1.41
2023-04-29T09:54:05.257Z,1.55
2023-04-29T09:55:05.313Z,1.43
2023-04-29T09:56:05.366Z,1.78
2023-04-29T09:57:05.421Z,1.66
2023-04-29T09:58:05.558Z,1.33
2023-04-29T09:59:05.548Z,2.12
2023-04-29T10:00:05.601Z,1.83
2023-04-29T10:01:05.712Z,1.52
2023-04-29T10:02:05.787Z,1.59
2023-04-29T10:03:05.939Z,1.64
2023-04-29T10:04:05.858Z,1.40
2023-04-29T10:05:05.899Z,1.80
2023-04-29T10:06:05.958Z,1.67
2023-04-29T10:07:06.006Z,1.60
2023-04-29T10:08:06.072Z,1.51
2023-04-29T10:09:06.116Z,1.38
2023-04-29T10:10:06.186Z,1.64
2023-04-29T10:11:06.338Z,1.89
2023-04-29T10:12:06.299Z,1.68
2023-04-29T10:13:06.369Z,1.51
2023-04-29T10:14:06.429Z,1.91
2023-04-29T10:15:06.487Z,1.98
2023-04-29T10:16:08.242Z,1.68
2023-04-29T10:17:06.601Z,1.79
2023-04-29T10:18:07.585Z,1.55
2023-04-29T10:19:06.701Z,1.62
2023-04-29T10:20:06.751Z,1.48
2023-04-29T10:21:06.817Z,1.77
2023-04-29T10:22:06.843Z,1.36
2023-04-29T10:23:06.846Z,1.53
2023-04-29T10:24:06.884Z,1.50
2023-04-29T10:25:06.872Z,2.35
2023-04-29T10:26:06.876Z,1.87
2023-04-29T10:27:06.891Z,1.76
2023-04-29T10:28:06.875Z,1.93
2023-04-29T10:29:06.871Z,1.55
2023-04-29T10:30:06.878Z,1.30
2023-04-29T10:31:06.927Z,1.67
2023-04-29T10:32:06.886Z,1.59
2023-04-29T10:33:06.906Z,1.74
2023-04-29T10:34:06.887Z,1.57
2023-04-29T10:35:06.873Z,1.60
2023-04-29T10:36:06.885Z,1.58
2023-04-29T10:37:06.896Z,1.59
2023-04-29T10:38:06.887Z,1.72
2023-04-29T10:39:06.900Z,1.50
2023-04-29T10:40:06.881Z,1.93
2023-04-29T10:41:06.880Z,1.47
2023-04-29T10:42:06.923Z,1.48
2023-04-29T10:43:06.892Z,1.52
2023-04-29T10:44:06.893Z,1.59
2023-04-29T10:45:06.908Z,1.56
2023-04-29T10:46:06.931Z,1.41
2023-04-29T10:47:06.950Z,1.61
2023-04-29T10:48:06.901Z,1.52
2023-04-29T10:49:07.072Z,1.57
2023-04-29T10:50:06.886Z,1.65
2023-04-29T10:51:06.930Z,1.62
2023-04-29T10:52:06.900Z,1.70
2023-04-29T10:53:06.973Z,1.57
2023-04-29T10:54:06.917Z,1.51
2023-04-29T10:55:06.909Z,1.35
2023-04-29T10:56:06.935Z,1.59
2023-04-29T10:57:06.996Z,1.57
2023-04-29T10:58:06.952Z,1.59
2023-04-29T10:59:06.961Z,1.59
2023-04-29T11:00:06.955Z,1.38
2023-04-29T11:01:07.041Z,1.59
2023-04-29T11:02:06.983Z,1.70
2023-04-29T11:03:07.048Z,1.32
2023-04-29T11:04:07.175Z,1.60
2023-04-29T11:05:07.018Z,1.57
2023-04-29T11:06:07.078Z,1.68
2023-04-29T11:07:07.034Z,1.58
2023-04-29T11:08:07.033Z,1.67
2023-04-29T11:09:07.040Z,1.69
2023-04-29T11:10:07.046Z,1.37
2023-04-29T11:11:07.074Z,1.46
2023-04-29T11:12:07.067Z,1.74
2023-04-29T11:13:07.081Z,1.59
2023-04-29T11:14:07.091Z,1.37
2023-04-29T11:15:07.102Z,1.40
2023-04-29T11:16:07.172Z,1.40
2023-04-29T11:17:07.110Z,1.60
2023-04-29T11:18:07.164Z,1.77
2023-04-29T11:19:07.119Z,1.60
2023-04-29T11:20:07.139Z,1.70
2023-04-29T11:21:07.156Z,1.48
2023-04-29T11:22:07.162Z,1.36
2023-04-29T11:23:07.178Z,1.46
2023-04-29T11:24:07.168Z,1.52
2023-04-29T11:25:07.318Z,1.73
2023-04-29T11:26:07.178Z,1.51
2023-04-29T11:27:07.191Z,1.52
2023-04-29T11:28:07.257Z,1.37
2023-04-29T11:29:07.211Z,1.54
2023-04-29T11:30:07.206Z,1.38
2023-04-29T11:31:07.303Z,1.75
2023-04-29T11:32:07.259Z,1.47
2023-04-29T11:33:07.307Z,1.54
2023-04-29T11:34:07.266Z,1.31
2023-04-29T11:35:07.245Z,1.50
2023-04-29T11:36:07.263Z,1.57
2023-04-29T11:37:07.327Z,1.82
2023-04-29T11:38:07.281Z,1.49
2023-04-29T11:39:07.296Z,1.51
2023-04-29T11:40:07.301Z,1.47
2023-04-29T11:41:07.311Z,1.56
2023-04-29T11:42:07.326Z,1.63
2023-04-29T11:43:07.360Z,1.82
2023-04-29T11:44:07.356Z,1.48
2023-04-29T11:45:07.361Z,1.28
2023-04-29T11:46:07.425Z,1.45
2023-04-29T11:47:07.388Z,1.87
2023-04-29T11:48:07.463Z,1.63
2023-04-29T11:49:07.515Z,1.27
2023-04-29T11:50:07.465Z,1.52
2023-04-29T11:51:07.468Z,1.49
2023-04-29T11:52:07.484Z,1.39
2023-04-29T11:53:07.493Z,1.75
2023-04-29T11:54:08.241Z,1.07
2023-04-29T11:55:07.524Z,1.75
2023-04-29T11:56:07.546Z,1.81
2023-04-29T11:57:07.561Z,1.70
2023-04-29T11:58:07.570Z,1.47
2023-04-29T11:59:07.593Z,1.30
2023-04-29T12:00:09.238Z,1.33
2023-04-29T12:01:07.627Z,1.49
2023-04-29T12:02:07.775Z,1.72
2023-04-29T12:03:07.858Z,1.47
2023-04-29T12:04:07.799Z,1.53
2023-04-29T12:05:07.848Z,1.30
2023-04-29T12:06:08.508Z,1.50
2023-04-29T12:07:07.722Z,1.55
2023-04-29T12:08:08.599Z,1.58
2023-04-29T12:09:07.780Z,1.62
2023-04-29T12:10:07.799Z,1.31
2023-04-29T12:11:07.828Z,1.20
2023-04-29T12:12:08.179Z,1.41
2023-04-29T12:13:10.106Z,1.03
2023-04-29T12:14:08.004Z,1.25
2023-04-29T12:15:08.023Z,1.18
2023-04-29T12:16:08.103Z,1.33
2023-04-29T12:17:08.074Z,1.49
2023-04-29T12:18:08.216Z,1.21
2023-04-29T12:19:08.121Z,1.55
2023-04-29T12:20:08.165Z,1.46
2023-04-29T12:21:08.180Z,1.35
2023-04-29T12:22:08.480Z,1.23
2023-04-29T12:23:08.242Z,1.45
2023-04-29T12:24:08.266Z,1.63
2023-04-29T12:25:08.307Z,1.51
2023-04-29T12:26:08.398Z,1.30
2023-04-29T12:27:08.346Z,1.24
2023-04-29T12:28:08.604Z,1.22
2023-04-29T12:29:08.425Z,1.39
2023-04-29T12:30:08.466Z,1.37
2023-04-29T12:31:08.506Z,1.42
2023-04-29T12:32:08.515Z,1.48
2023-04-29T12:33:08.590Z,1.57
2023-04-29T12:34:09.993Z,1.49
2023-04-29T12:35:08.611Z,1.41
2023-04-29T12:36:08.648Z,1.29
2023-04-29T12:37:08.658Z,1.42
2023-04-29T12:38:08.714Z,1.48
2023-04-29T12:39:08.733Z,1.48
2023-04-29T12:40:08.784Z,1.64
2023-04-29T12:41:08.790Z,1.09
2023-04-29T12:42:08.839Z,1.41
2023-04-29T12:43:08.863Z,1.59
2023-04-29T12:44:08.970Z,1.04
2023-04-29T12:45:08.996Z,1.21
2023-04-29T12:46:09.061Z,1.19
2023-04-29T12:47:09.070Z,1.30
2023-04-29T12:48:15.132Z,1.25
2023-04-29T12:49:10.061Z,1.38
2023-04-29T12:50:09.123Z,1.14
2023-04-29T12:51:09.611Z,1.48
2023-04-29T12:52:09.025Z,1.58
2023-04-29T12:53:09.012Z,1.29
2023-04-29T12:54:09.022Z,1.08
2023-04-29T12:55:09.013Z,1.32
2023-04-29T12:56:08.996Z,1.69
2023-04-29T12:57:09.801Z,1.43
2023-04-29T12:58:08.980Z,1.16
2023-04-29T12:59:09.007Z,1.35
2023-04-29T13:00:09.084Z,1.54
2023-04-29T13:01:10.608Z,1.24
2023-04-29T13:02:09.330Z,1.32
2023-04-29T13:03:09.356Z,1.37
2023-04-29T13:04:09.526Z,1.65
2023-04-29T13:05:09.428Z,1.47
2023-04-29T13:06:09.376Z,1.32
2023-04-29T13:07:09.438Z,1.44
2023-04-29T13:08:09.525Z,1.20
2023-04-29T13:09:11.899Z,1.51
2023-04-29T13:10:10.556Z,1.26
2023-04-29T13:11:09.536Z,1.34
2023-04-29T13:12:09.774Z,1.40
2023-04-29T13:13:09.513Z,1.36
2023-04-29T13:14:09.505Z,1.62
2023-04-29T13:15:09.505Z,1.26
2023-04-29T13:16:09.503Z,1.39
2023-04-29T13:17:10.990Z,1.24
2023-04-29T13:18:09.500Z,1.12
2023-04-29T13:19:24.650Z,1.11